Time;durP1;ratioP1;P1;durP2;ratioP2;P2;SDS_P1;SDS_P2;PMS_P1;PMS_P2;Temp;Humidity;BMP_temperature;BMP_pressure;BME280_temperature;BME280_humidity;BME280_pressure;Samples;Min_cycle;Max_cycle;Signal;HPM_P1;HPM_P2
2021/06/14 00:02:08;;;;;;;13.55;6.68;;;;;;;15.59;68.10;102605.50;5052674;28;20144;-70
2021/06/14 00:04:36;;;;;;;12.10;6.43;;;;;;;15.57;67.42;102604.66;5057226;28;20487;-71
2021/06/14 00:07:04;;;;;;;11.90;6.28;;;;;;;15.50;67.55;102603.91;5052850;28;20052;-71
2021/06/14 00:09:33;;;;;;;11.88;7.10;;;;;;;15.47;68.67;102594.09;5057403;28;20080;-71
2021/06/14 00:12:02;;;;;;;10.77;6.35;;;;;;;15.40;67.71;102603.25;5054091;28;20395;-70
2021/06/14 00:14:30;;;;;;;14.55;6.65;;;;;;;15.35;68.23;102594.41;5058460;28;20068;-70
2021/06/14 00:16:58;;;;;;;13.57;6.82;;;;;;;15.30;69.53;102596.31;5053688;28;20110;-70
2021/06/14 00:19:27;;;;;;;15.68;6.78;;;;;;;15.28;69.61;102592.78;5053957;28;20053;-70
2021/06/14 00:21:55;;;;;;;10.82;6.28;;;;;;;15.26;69.26;102590.13;5057343;28;20064;-70
2021/06/14 00:24:23;;;;;;;13.25;6.32;;;;;;;15.19;69.97;102587.63;5053967;28;20060;-70
2021/06/14 00:26:50;;;;;;;14.85;6.88;;;;;;;15.12;70.60;102578.84;5055922;28;20077;-71
2021/06/14 00:29:18;;;;;;;15.77;6.60;;;;;;;15.09;70.57;102579.78;5053569;28;20978;-70
2021/06/14 00:31:46;;;;;;;16.92;6.95;;;;;;;15.08;71.03;102583.38;5052251;28;20057;-69
2021/06/14 00:34:14;;;;;;;11.98;6.25;;;;;;;15.04;70.24;102583.50;5049705;28;20076;-71
2021/06/14 00:36:43;;;;;;;13.32;6.57;;;;;;;15.02;72.08;102583.53;5054688;28;20075;-70
2021/06/14 00:39:11;;;;;;;14.23;7.20;;;;;;;15.00;71.32;102577.31;5050185;28;20052;-71
2021/06/14 00:41:39;;;;;;;14.57;7.05;;;;;;;14.98;71.30;102578.25;5053583;28;20057;-71
2021/06/14 00:44:07;;;;;;;16.23;6.82;;;;;;;14.93;70.76;102572.97;5048683;28;20052;-72
2021/06/14 00:46:35;;;;;;;16.23;8.60;;;;;;;14.89;71.27;102566.78;5053987;28;20060;-74
2021/06/14 00:49:03;;;;;;;14.38;8.75;;;;;;;14.87;71.88;102562.38;5053021;28;20063;-74
2021/06/14 00:51:31;;;;;;;15.02;7.63;;;;;;;14.89;73.19;102555.16;5052403;28;20099;-73
2021/06/14 00:54:02;;;;;;;16.35;6.75;;;;;;;14.88;72.69;102548.91;5050299;28;20064;-73
2021/06/14 00:56:31;;;;;;;12.75;7.18;;;;;;;14.96;73.45;102553.22;5056753;28;20066;-73
2021/06/14 00:58:58;;;;;;;12.30;6.63;;;;;;;14.89;72.78;102547.09;5050906;28;20470;-76
2021/06/14 01:01:26;;;;;;;13.07;7.03;;;;;;;14.89;72.99;102544.41;5054100;28;20063;-75
2021/06/14 01:03:54;;;;;;;14.73;7.93;;;;;;;14.85;73.29;102540.94;5053729;28;20083;-74
2021/06/14 01:06:23;;;;;;;14.18;7.70;;;;;;;14.81;73.12;102536.53;5049919;28;20222;-70
2021/06/14 01:08:53;;;;;;;15.98;8.15;;;;;;;14.77;72.99;102534.84;5052159;28;20083;-70
2021/06/14 01:11:30;;;;;;;12.77;7.30;;;;;;;14.79;74.02;102526.75;5048518;28;20059;-70
2021/06/14 01:14:03;;;;;;;16.02;8.73;;;;;;;14.77;73.69;102526.78;5055070;28;20056;-70
2021/06/14 01:16:39;;;;;;;15.20;8.52;;;;;;;14.77;73.48;102510.66;5052457;28;20059;-70
2021/06/14 01:19:21;;;;;;;18.80;8.65;;;;;;;14.78;74.11;102509.75;5053529;28;20056;-72
2021/06/14 01:22:14;;;;;;;14.45;8.13;;;;;;;14.81;73.81;102514.16;5057930;28;20072;-72
2021/06/14 01:24:55;;;;;;;17.90;8.07;;;;;;;14.79;74.02;102508.81;5050887;28;20072;-70
2021/06/14 01:27:40;;;;;;;14.60;8.32;;;;;;;14.79;74.26;102514.19;5049658;28;20613;-70
2021/06/14 01:30:11;;;;;;;19.23;9.73;;;;;;;14.75;73.74;102509.81;5055602;28;20063;-70
2021/06/14 01:32:41;;;;;;;15.80;8.25;;;;;;;14.77;74.04;102502.59;5050412;28;20053;-71
2021/06/14 01:35:12;;;;;;;15.75;8.77;;;;;;;14.75;74.13;102499.94;5057045;28;20059;-71
2021/06/14 01:37:45;;;;;;;16.45;8.30;;;;;;;14.75;74.42;102508.00;5049911;28;20462;-71
2021/06/14 01:40:16;;;;;;;19.90;9.88;;;;;;;14.79;74.19;102497.19;5057494;28;20069;-70
2021/06/14 01:42:48;;;;;;;15.93;8.98;;;;;;;14.77;74.10;102497.22;5048485;28;20067;-74
2021/06/14 01:45:19;;;;;;;15.40;8.52;;;;;;;14.75;74.33;102488.31;5052959;28;20703;-74
2021/06/14 01:47:48;;;;;;;18.90;8.68;;;;;;;14.71;73.99;102487.50;5050694;28;20053;-74
2021/06/14 01:50:18;;;;;;;16.92;9.10;;;;;;;14.68;74.04;102478.63;5052956;28;20398;-74
2021/06/14 01:52:46;;;;;;;16.80;9.18;;;;;;;14.63;74.69;102476.06;5049653;28;20110;-75
2021/06/14 01:55:16;;;;;;;18.10;8.38;;;;;;;14.60;74.18;102475.25;5053988;28;20092;-75
2021/06/14 01:57:46;;;;;;;18.98;8.88;;;;;;;14.55;74.49;102481.56;5047111;28;20061;-74
2021/06/14 02:00:15;;;;;;;16.92;8.68;;;;;;;14.52;74.90;102473.59;5052641;28;20063;-74
2021/06/14 02:02:45;;;;;;;19.77;9.95;;;;;;;14.50;74.93;102474.53;5050728;28;20493;-74
2021/06/14 02:05:15;;;;;;;15.48;8.75;;;;;;;14.50;75.37;102469.16;5050293;28;20061;-74
2021/06/14 02:07:43;;;;;;;16.15;9.13;;;;;;;14.44;74.81;102467.50;5051288;28;20057;-74
2021/06/14 02:10:12;;;;;;;16.38;8.23;;;;;;;14.39;74.44;102472.97;5051447;28;20071;-74
2021/06/14 02:12:41;;;;;;;16.83;8.45;;;;;;;14.36;75.33;102474.84;5051394;28;20067;-74
2021/06/14 02:15:12;;;;;;;18.08;8.55;;;;;;;14.28;74.55;102476.81;5049588;28;20331;-74
2021/06/14 02:17:42;;;;;;;20.67;8.50;;;;;;;14.23;74.88;102478.69;5056590;28;20054;-74
2021/06/14 02:20:11;;;;;;;14.40;8.23;;;;;;;14.18;75.00;102471.63;5049703;28;20136;-74
2021/06/14 02:22:40;;;;;;;20.98;9.20;;;;;;;14.18;76.09;102474.31;5053580;28;20076;-74
2021/06/14 02:25:10;;;;;;;15.32;8.95;;;;;;;14.18;76.21;102477.00;5064366;28;20158;-75
2021/06/14 02:27:40;;;;;;;18.50;8.60;;;;;;;14.15;75.32;102465.47;5052984;28;20056;-73
2021/06/14 02:30:13;;;;;;;17.73;9.93;;;;;;;14.19;76.44;102468.03;5050882;28;20053;-74
2021/06/14 02:32:41;;;;;;;15.25;9.43;;;;;;;14.10;76.58;102462.88;5055383;28;20079;-74
2021/06/14 02:35:11;;;;;;;17.98;9.73;;;;;;;14.06;75.84;102466.50;5050180;28;20060;-74
2021/06/14 02:37:45;;;;;;;20.10;8.93;;;;;;;14.01;75.76;102465.72;5058519;28;20455;-73
2021/06/14 02:40:14;;;;;;;18.20;8.30;;;;;;;13.99;76.23;102470.25;5045108;28;20049;-74
2021/06/14 02:42:44;;;;;;;16.02;8.10;;;;;;;13.96;76.39;102464.94;5055992;28;20048;-74
2021/06/14 02:45:15;;;;;;;19.02;9.07;;;;;;;13.90;75.62;102465.94;5045716;28;20064;-74
2021/06/14 02:47:44;;;;;;;15.93;8.55;;;;;;;13.89;75.91;102464.16;5058431;28;20466;-74
2021/06/14 02:50:15;;;;;;;19.25;9.02;;;;;;;13.87;76.54;102463.31;5048599;28;20152;-74
2021/06/14 02:52:47;;;;;;;15.40;8.00;;;;;;;13.87;77.10;102460.63;5058955;28;20064;-74
2021/06/14 02:55:18;;;;;;;19.65;9.30;;;;;;;13.85;77.12;102465.16;5051386;28;20155;-74
2021/06/14 02:57:51;;;;;;;17.50;8.73;;;;;;;13.87;77.88;102465.13;5058610;28;20076;-74
2021/06/14 03:00:23;;;;;;;18.58;10.52;;;;;;;13.82;77.94;102468.81;5051222;28;20060;-74
2021/06/14 03:02:51;;;;;;;18.98;9.90;;;;;;;13.83;78.89;102465.19;5055134;28;20056;-74
2021/06/14 03:05:20;;;;;;;19.45;9.15;;;;;;;13.87;78.74;102462.44;5052627;28;20065;-74
2021/06/14 03:07:48;;;;;;;17.42;9.68;;;;;;;13.86;79.30;102457.97;5058749;28;20048;-75
2021/06/14 03:10:17;;;;;;;18.73;8.25;;;;;;;13.83;78.22;102461.63;5052264;28;20072;-74
2021/06/14 03:12:45;;;;;;;25.65;11.02;;;;;;;13.83;77.98;102457.13;5058715;28;20065;-73
2021/06/14 03:15:14;;;;;;;34.00;15.20;;;;;;;13.81;77.93;102461.66;5050470;28;20064;-74
2021/06/14 03:17:44;;;;;;;25.10;10.55;;;;;;;13.74;77.53;102453.75;5056491;28;20071;-73
2021/06/14 03:20:14;;;;;;;19.80;10.25;;;;;;;13.70;77.37;102457.41;5050443;28;20725;-74
2021/06/14 03:22:42;;;;;;;17.88;10.05;;;;;;;13.67;77.37;102466.38;5054101;28;20064;-74
2021/06/14 03:25:10;;;;;;;20.13;9.68;;;;;;;13.66;77.51;102455.72;5050093;28;20074;-74
2021/06/14 03:27:39;;;;;;;21.48;9.27;;;;;;;13.65;77.65;102454.81;5054589;28;20060;-74
2021/06/14 03:30:08;;;;;;;17.58;9.38;;;;;;;13.70;78.37;102460.09;5054725;28;20504;-74
2021/06/14 03:32:40;;;;;;;19.05;9.23;;;;;;;13.71;79.08;102460.06;5055083;28;20106;-74
2021/06/14 03:35:14;;;;;;;17.20;9.35;;;;;;;13.74;78.93;102462.69;5053827;28;21089;-74
2021/06/14 03:37:42;;;;;;;17.73;8.93;;;;;;;13.70;77.96;102466.34;5053568;28;20145;-74
2021/06/14 03:40:11;;;;;;;23.17;9.80;;;;;;;13.64;77.77;102466.47;5051567;28;20467;-75
2021/06/14 03:42:39;;;;;;;17.85;9.02;;;;;;;13.63;78.09;102462.88;5054194;28;20270;-75
2021/06/14 03:45:10;;;;;;;20.65;10.68;;;;;;;13.67;77.38;102471.75;5053739;28;20061;-71
2021/06/14 03:47:39;;;;;;;21.50;10.57;;;;;;;13.65;77.78;102476.28;5049223;28;20064;-70
2021/06/14 03:50:08;;;;;;;22.42;10.25;;;;;;;13.69;78.63;102478.00;5057706;28;20057;-71
2021/06/14 03:52:40;;;;;;;21.17;9.85;;;;;;;13.71;78.60;102475.28;5052881;28;20064;-74
2021/06/14 03:55:09;;;;;;;21.23;9.13;;;;;;;13.68;77.37;102476.22;5056661;28;20058;-75
2021/06/14 03:57:37;;;;;;;27.58;10.20;;;;;;;13.66;77.90;102470.00;5049229;28;20348;-75
2021/06/14 04:00:08;;;;;;;18.88;9.45;;;;;;;13.68;78.01;102475.34;5055612;28;20053;-75
2021/06/14 04:02:36;;;;;;;20.38;10.20;;;;;;;13.67;77.24;102477.13;5048868;28;20079;-74
2021/06/14 04:05:05;;;;;;;21.08;10.25;;;;;;;13.70;78.53;102477.06;5052267;28;20060;-75
2021/06/14 04:07:33;;;;;;;18.95;9.85;;;;;;;13.71;77.76;102476.16;5049821;28;20568;-74
2021/06/14 04:10:03;;;;;;;18.83;8.60;;;;;;;13.72;77.98;102477.03;5055777;28;20391;-74
2021/06/14 04:12:32;;;;;;;20.42;8.95;;;;;;;13.72;78.32;102485.09;5050873;28;20630;-75
2021/06/14 04:15:00;;;;;;;16.42;8.15;;;;;;;13.74;78.34;102486.84;5058149;28;20087;-74
2021/06/14 04:17:29;;;;;;;21.58;9.48;;;;;;;13.80;78.67;102481.34;5051962;28;20682;-75
2021/06/14 04:19:57;;;;;;;20.20;9.10;;;;;;;13.84;78.49;102479.47;5057007;28;20063;-74
2021/06/14 04:22:25;;;;;;;22.23;9.20;;;;;;;13.99;79.13;102476.47;5050504;28;20628;-74
2021/06/14 04:24:53;;;;;;;17.95;8.13;;;;;;;14.01;78.59;102473.78;5063783;28;20148;-73
2021/06/14 04:27:23;;;;;;;22.48;9.13;;;;;;;14.05;78.26;102472.81;5053984;28;20065;-74
2021/06/14 04:29:51;;;;;;;16.48;9.32;;;;;;;14.18;78.53;102470.72;5061800;28;20063;-74
2021/06/14 04:32:19;;;;;;;20.98;8.88;;;;;;;14.31;78.50;102474.06;5055258;28;20053;-74
2021/06/14 04:34:46;;;;;;;18.02;8.60;;;;;;;14.46;78.29;102464.78;5053373;28;20057;-74
2021/06/14 04:37:14;;;;;;;17.98;9.02;;;;;;;14.58;77.21;102464.50;5066755;28;20056;-74
2021/06/14 04:39:42;;;;;;;20.33;9.52;;;;;;;14.81;76.41;102463.09;5053568;28;20067;-74
2021/06/14 04:42:10;;;;;;;16.30;8.18;;;;;;;14.96;75.46;102451.09;5050439;28;21032;-74
2021/06/14 04:44:39;;;;;;;17.15;8.48;;;;;;;15.13;75.22;102462.28;5051555;28;20056;-74
2021/06/14 04:47:07;;;;;;;19.73;8.90;;;;;;;15.32;73.68;102438.50;5049624;28;20060;-75
2021/06/14 04:49:35;;;;;;;18.27;8.48;;;;;;;15.49;73.61;102436.25;5051600;28;20063;-71
2021/06/14 04:52:03;;;;;;;17.40;8.27;;;;;;;15.75;72.30;102433.75;5053997;28;20106;-71
2021/06/14 04:54:31;;;;;;;18.17;8.18;;;;;;;15.95;70.89;102423.31;5051032;28;20061;-71
2021/06/14 04:56:59;;;;;;;17.27;7.82;;;;;;;16.17;69.13;102418.16;5052391;28;20056;-71
2021/06/14 04:59:27;;;;;;;21.63;8.38;;;;;;;16.39;68.44;102414.81;5050632;28;20057;-71
2021/06/14 05:01:56;;;;;;;17.70;8.10;;;;;;;16.64;68.05;102422.13;5053810;28;20060;-70
2021/06/14 05:04:24;;;;;;;19.20;8.48;;;;;;;16.86;67.96;102420.50;5053070;28;20060;-71
2021/06/14 05:06:52;;;;;;;16.70;8.43;;;;;;;17.06;65.46;102414.44;5050719;28;20063;-70
2021/06/14 05:09:20;;;;;;;18.30;8.48;;;;;;;17.32;66.30;102418.91;5054229;28;20440;-70
2021/06/14 05:11:48;;;;;;;23.88;9.45;;;;;;;17.53;61.94;102419.09;5050634;28;20070;-70
2021/06/14 05:14:16;;;;;;;18.90;8.55;;;;;;;17.68;59.74;102407.72;5050183;28;20125;-69
2021/06/14 05:16:44;;;;;;;19.10;8.25;;;;;;;17.93;58.88;102409.53;5049531;28;20068;-70
2021/06/14 05:19:13;;;;;;;18.60;8.52;;;;;;;18.15;57.57;102406.91;5055061;28;20088;-72
2021/06/14 05:21:42;;;;;;;17.08;8.23;;;;;;;18.35;57.55;102411.47;5065900;28;20062;-71
2021/06/14 05:24:10;;;;;;;22.27;8.93;;;;;;;18.57;57.83;102413.34;5052297;28;20053;-70
2021/06/14 05:26:38;;;;;;;16.67;8.52;;;;;;;18.76;56.81;102419.75;5052252;28;20063;-75
2021/06/14 05:29:06;;;;;;;21.25;8.18;;;;;;;19.08;56.07;102413.94;5053498;28;20067;-74
2021/06/14 05:31:34;;;;;;;19.75;8.80;;;;;;;19.25;55.37;102414.09;5051114;28;20075;-75
2021/06/14 05:34:01;;;;;;;21.40;8.88;;;;;;;19.38;54.72;102422.56;5054283;28;20463;-71
2021/06/14 05:36:31;;;;;;;19.48;8.30;;;;;;;19.69;54.61;102411.22;5053176;28;20057;-71
2021/06/14 05:39:01;;;;;;;20.58;8.27;;;;;;;19.98;54.08;102414.44;5054229;28;20057;-70
2021/06/14 05:41:29;;;;;;;22.23;8.90;;;;;;;19.85;53.02;102414.13;5050328;28;20064;-71
2021/06/14 05:43:57;;;;;;;21.52;8.23;;;;;;;20.03;52.74;102409.69;5054913;28;20072;-75
2021/06/14 05:46:26;;;;;;;22.25;8.73;;;;;;;20.38;52.31;102408.94;5051551;28;20142;-74
2021/06/14 05:48:54;;;;;;;16.42;7.72;;;;;;;20.39;52.07;102398.03;5052588;28;20057;-75
2021/06/14 05:51:21;;;;;;;20.15;8.32;;;;;;;20.56;51.04;102391.78;5051869;28;20091;-74
2021/06/14 05:53:51;;;;;;;16.98;7.45;;;;;;;20.74;51.09;102381.88;5050944;28;20057;-75
2021/06/14 05:56:18;;;;;;;20.48;8.73;;;;;;;21.01;49.89;102379.59;5051278;28;20122;-69
2021/06/14 05:58:46;;;;;;;19.20;8.35;;;;;;;21.20;49.00;102371.34;5049816;28;20067;-72
2021/06/14 06:01:14;;;;;;;18.55;8.48;;;;;;;21.64;48.20;102373.56;5055762;28;20060;-72
2021/06/14 06:03:42;;;;;;;22.50;8.40;;;;;;;21.45;46.83;102364.59;5049650;28;20094;-72
2021/06/14 06:06:10;;;;;;;17.27;8.10;;;;;;;21.53;46.68;102361.50;5051701;28;20060;-72
2021/06/14 06:08:38;;;;;;;20.48;7.70;;;;;;;21.52;45.69;102367.91;5054655;28;20049;-69
2021/06/14 06:11:07;;;;;;;19.08;7.93;;;;;;;21.54;45.64;102356.00;5059289;28;20060;-73
2021/06/14 06:13:36;;;;;;;18.90;7.43;;;;;;;21.78;44.02;102361.06;5050218;28;20064;-75
2021/06/14 06:16:04;;;;;;;21.90;8.77;;;;;;;21.70;44.03;102361.47;5054982;28;20094;-75
2021/06/14 06:18:32;;;;;;;23.30;8.60;;;;;;;21.52;44.27;102357.03;5047633;28;20073;-72
2021/06/14 06:21:00;;;;;;;21.23;8.45;;;;;;;21.63;44.31;102360.03;5051406;28;20452;-72
2021/06/14 06:23:29;;;;;;;14.88;7.20;;;;;;;22.14;43.45;102368.09;5047442;28;20566;-72
2021/06/14 06:25:56;;;;;;;16.95;7.88;;;;;;;22.06;43.15;102352.19;5049882;28;20072;-73
2021/06/14 06:28:26;;;;;;;15.43;6.57;;;;;;;22.56;43.38;102356.59;5049498;28;20126;-73
2021/06/14 06:30:54;;;;;;;17.38;7.68;;;;;;;21.99;43.01;102348.09;5052661;28;20064;-73
2021/06/14 06:33:21;;;;;;;27.23;8.30;;;;;;;22.23;42.83;102337.66;5051225;28;20056;-73
2021/06/14 06:35:49;;;;;;;18.27;7.60;;;;;;;22.29;43.10;102340.06;5054332;28;20088;-73
2021/06/14 06:38:17;;;;;;;21.55;8.75;;;;;;;22.63;42.72;102324.47;5053798;28;20060;-73
2021/06/14 06:40:45;;;;;;;17.15;7.97;;;;;;;22.74;41.90;102316.53;5054519;28;20060;-73
2021/06/14 06:43:13;;;;;;;18.55;8.02;;;;;;;22.95;41.86;102327.06;5069678;28;20072;-73
2021/06/14 06:45:44;;;;;;;21.85;8.15;;;;;;;23.06;42.04;102326.47;5054810;28;20065;-74
2021/06/14 06:48:20;;;;;;;17.10;8.07;;;;;;;22.88;40.93;102325.69;5050962;28;20510;-72
2021/06/14 06:50:48;;;;;;;19.92;8.32;;;;;;;23.24;40.45;102308.09;5052424;28;20060;-72
2021/06/14 06:53:18;;;;;;;18.38;7.55;;;;;;;22.91;41.57;102314.63;5068403;28;20053;-72
2021/06/14 06:55:46;;;;;;;18.05;8.23;;;;;;;23.16;40.71;102324.06;5052855;28;20063;-72
2021/06/14 06:58:13;;;;;;;19.95;9.00;;;;;;;23.22;40.28;102321.78;5053693;28;20061;-73
2021/06/14 07:00:47;;;;;;;19.27;8.57;;;;;;;23.31;39.00;102325.81;5053043;28;20063;-71
2021/06/14 07:03:16;;;;;;;24.85;8.55;;;;;;;23.04;40.19;102318.34;5054169;28;20133;-73
2021/06/14 07:05:46;;;;;;;21.02;8.57;;;;;;;23.50;39.94;102312.78;5050482;28;20060;-72
2021/06/14 07:08:14;;;;;;;22.48;8.73;;;;;;;23.92;38.64;102314.69;5057504;28;20955;-72
2021/06/14 07:10:43;;;;;;;19.98;7.88;;;;;;;24.46;39.51;102311.13;5048754;28;20061;-72
2021/06/14 07:13:12;;;;;;;19.00;8.43;;;;;;;23.78;37.46;102315.56;5050978;28;20056;-73
2021/06/14 07:15:40;;;;;;;15.90;7.80;;;;;;;23.76;38.25;102309.34;5052100;28;20075;-72
2021/06/14 07:18:09;;;;;;;19.15;7.25;;;;;;;24.07;38.31;102301.91;5053337;28;20070;-72
2021/06/14 07:20:39;;;;;;;20.65;7.90;;;;;;;24.28;37.30;102297.78;5052238;28;20064;-73
2021/06/14 07:23:07;;;;;;;15.85;8.18;;;;;;;24.19;37.29;102301.09;5050638;28;20102;-72
2021/06/14 07:25:35;;;;;;;18.75;7.43;;;;;;;24.30;36.65;102295.81;5051579;28;20056;-73
2021/06/14 07:28:03;;;;;;;21.40;6.97;;;;;;;24.26;36.41;102298.84;5051843;28;20267;-72
2021/06/14 07:30:33;;;;;;;15.25;7.50;;;;;;;24.76;36.11;102292.69;5048589;28;20074;-72
2021/06/14 07:33:02;;;;;;;18.70;8.27;;;;;;;24.95;35.64;102297.72;5052630;28;20058;-72
2021/06/14 07:35:35;;;;;;;16.95;7.43;;;;;;;25.94;35.28;102300.72;5051472;28;20069;-74
2021/06/14 07:38:05;;;;;;;17.05;7.70;;;;;;;25.05;35.51;102286.16;5058105;28;20064;-73
2021/06/14 07:40:33;;;;;;;15.40;7.25;;;;;;;25.83;33.65;102296.00;5048709;28;20057;-73
2021/06/14 07:43:01;;;;;;;17.75;7.68;;;;;;;25.70;33.58;102294.19;5057763;28;20080;-74
2021/06/14 07:45:29;;;;;;;17.15;6.50;;;;;;;25.88;33.35;102302.00;5053836;28;20056;-73
2021/06/14 07:47:57;;;;;;;17.52;7.03;;;;;;;25.63;34.05;102306.56;5058670;28;20064;-72
2021/06/14 07:50:25;;;;;;;16.30;7.43;;;;;;;26.25;32.90;102310.22;5050862;28;20071;-73
2021/06/14 07:52:55;;;;;;;17.75;7.00;;;;;;;26.13;32.34;102306.56;5053757;28;20064;-74
2021/06/14 07:55:23;;;;;;;15.30;7.47;;;;;;;26.16;33.49;102300.88;5053499;28;20079;-74
2021/06/14 07:57:51;;;;;;;16.77;7.50;;;;;;;25.66;33.40;102298.16;5049834;28;20757;-74
2021/06/14 08:00:19;;;;;;;14.68;7.57;;;;;;;25.40;34.31;102299.16;5052404;28;20125;-75
2021/06/14 08:02:48;;;;;;;17.00;6.97;;;;;;;26.00;33.42;102290.22;5052371;28;20099;-75
2021/06/14 08:05:17;;;;;;;16.58;7.28;;;;;;;26.41;33.34;102286.19;5058005;28;20118;-77
2021/06/14 08:07:45;;;;;;;18.48;7.78;;;;;;;27.18;32.28;102285.66;5052749;28;20064;-77
2021/06/14 08:10:16;;;;;;;18.40;7.53;;;;;;;27.63;31.60;102300.41;5056676;28;20060;-74
2021/06/14 08:12:49;;;;;;;17.88;7.25;;;;;;;27.80;31.47;102294.41;5052706;28;20261;-74
2021/06/14 08:15:20;;;;;;;16.70;7.50;;;;;;;27.63;29.80;102303.16;5054843;28;20397;-76
2021/06/14 08:17:49;;;;;;;16.50;7.70;;;;;;;26.84;31.54;102304.78;5052899;28;20133;-76
2021/06/14 08:20:24;;;;;;;16.92;7.30;;;;;;;26.83;31.55;102304.91;5058237;28;20511;-76
2021/06/14 08:25:39;;;;;;;18.90;7.50;;;;;;;28.61;30.43;102294.09;5058018;28;20064;-76
2021/06/14 08:28:08;;;;;;;15.82;7.22;;;;;;;28.04;29.39;102298.88;5053340;28;20065;-75
2021/06/14 08:30:36;;;;;;;14.98;6.68;;;;;;;28.49;29.42;102298.72;5057858;28;20073;-77
2021/06/14 08:33:04;;;;;;;14.25;7.70;;;;;;;28.47;30.07;102300.75;5056877;28;20060;-77
2021/06/14 08:35:34;;;;;;;14.55;6.53;;;;;;;29.60;28.99;102297.28;5057711;28;20064;-78
2021/06/14 08:38:04;;;;;;;15.00;7.00;;;;;;;29.33;28.46;102293.25;5058700;28;20068;-76
2021/06/14 08:40:34;;;;;;;12.98;7.20;;;;;;;29.27;28.70;102291.06;5057242;28;20065;-78
2021/06/14 08:43:05;;;;;;;16.67;7.55;;;;;;;28.97;27.84;102294.63;5055091;28;20091;-77
2021/06/14 08:45:36;;;;;;;12.95;6.22;;;;;;;28.97;28.78;102300.97;5072911;28;20056;-77
2021/06/14 08:48:07;;;;;;;19.52;7.50;;;;;;;28.92;29.19;102300.53;5056798;28;20056;-80
2021/06/14 08:50:37;;;;;;;15.43;7.25;;;;;;;28.95;28.77;102293.91;5057311;28;20623;-76
2021/06/14 08:53:07;;;;;;;21.73;7.63;;;;;;;28.94;29.09;102304.00;5052055;28;20056;-77
2021/06/14 08:55:36;;;;;;;14.57;6.82;;;;;;;29.86;27.74;102299.56;5058552;28;20146;-78
2021/06/14 08:58:06;;;;;;;16.55;7.63;;;;;;;29.01;29.33;102294.22;5053286;28;20065;-76
2021/06/14 09:00:35;;;;;;;17.77;8.50;;;;;;;28.74;29.88;102288.38;5055675;28;20068;-78
2021/06/14 09:03:05;;;;;;;19.88;8.63;;;;;;;27.64;31.40;102292.06;5055320;28;20060;-75
2021/06/14 09:05:33;;;;;;;17.73;7.85;;;;;;;28.43;30.92;102286.38;5054239;28;20072;-72
2021/06/14 09:08:07;;;;;;;21.35;8.60;;;;;;;27.75;30.19;102280.19;5055630;28;20467;-72
2021/06/14 09:10:38;;;;;;;17.55;8.10;;;;;;;28.60;29.66;102284.97;5051121;28;20076;-71
2021/06/14 09:13:12;;;;;;;15.48;7.80;;;;;;;29.03;29.26;102270.22;5053730;28;20144;-72
2021/06/14 09:15:41;;;;;;;20.52;7.60;;;;;;;29.46;28.13;102276.53;5053014;28;20068;-71
2021/06/14 09:18:22;;;;;;;14.50;7.30;;;;;;;29.85;27.48;102273.06;5056128;28;20072;-72
2021/06/14 09:20:58;;;;;;;18.35;7.47;;;;;;;29.67;27.58;102267.34;5050242;28;20055;-72
2021/06/14 09:23:38;;;;;;;16.65;7.95;;;;;;;30.24;27.36;102263.00;5054549;28;20068;-73
2021/06/14 09:26:06;;;;;;;17.70;7.32;;;;;;;29.96;28.10;102262.78;5054387;28;20064;-72
2021/06/14 09:28:35;;;;;;;16.83;6.95;;;;;;;29.90;28.57;102265.25;5057331;28;20131;-72
2021/06/14 09:31:13;;;;;;;16.02;7.53;;;;;;;29.92;27.51;102261.34;5050493;28;20079;-72
2021/06/14 09:33:44;;;;;;;15.20;7.20;;;;;;;30.14;27.49;102259.38;5053010;28;20479;-72
2021/06/14 09:36:12;;;;;;;16.42;7.53;;;;;;;29.83;28.09;102250.31;5050687;28;20060;-71
2021/06/14 09:38:40;;;;;;;15.25;6.78;;;;;;;30.59;27.58;102253.28;5053805;28;20064;-72
2021/06/14 09:41:16;;;;;;;16.85;6.93;;;;;;;30.30;26.61;102237.63;5070657;28;20064;-74
2021/06/14 09:43:47;;;;;;;18.08;7.47;;;;;;;29.91;27.97;102239.50;5052373;28;20057;-73
2021/06/14 09:46:22;;;;;;;17.58;7.30;;;;;;;29.98;27.86;102244.28;5050960;28;20084;-71
2021/06/14 09:48:50;;;;;;;15.32;7.40;;;;;;;30.64;26.29;102237.19;5052746;28;20135;-71
2021/06/14 09:51:20;;;;;;;14.50;7.07;;;;;;;29.51;27.33;102233.00;5047933;28;20052;-73
2021/06/14 09:53:50;;;;;;;13.23;6.90;;;;;;;28.95;27.85;102230.72;5053287;28;20056;-72
2021/06/14 09:56:20;;;;;;;15.43;7.22;;;;;;;29.34;28.48;102231.78;5049695;28;20056;-71
2021/06/14 09:58:51;;;;;;;17.48;7.57;;;;;;;28.47;29.82;102237.63;5050434;28;20060;-71
2021/06/14 10:01:25;;;;;;;15.70;7.22;;;;;;;29.10;28.67;102228.47;5054054;28;20060;-71
2021/06/14 10:03:54;;;;;;;17.45;7.93;;;;;;;28.69;28.37;102226.53;5052325;28;20064;-71
2021/06/14 10:06:34;;;;;;;13.10;6.68;;;;;;;29.57;28.09;102220.56;5049765;28;20084;-70
2021/06/14 10:09:05;;;;;;;15.57;6.82;;;;;;;29.33;28.24;102220.94;5049368;28;20095;-71
2021/06/14 10:11:35;;;;;;;17.13;6.95;;;;;;;28.70;29.14;102205.41;5047560;28;20067;-71
2021/06/14 10:14:10;;;;;;;16.85;7.38;;;;;;;28.70;30.03;102210.91;5053371;28;20057;-71
2021/06/14 10:16:39;;;;;;;18.73;7.50;;;;;;;29.44;28.49;102220.84;5053581;28;20057;-73
2021/06/14 10:19:09;;;;;;;15.65;7.43;;;;;;;28.77;29.14;102217.59;5049526;28;20069;-74
2021/06/14 10:21:40;;;;;;;14.25;7.40;;;;;;;29.46;28.44;102226.16;5050730;28;20214;-72
2021/06/14 10:24:10;;;;;;;16.77;7.15;;;;;;;29.94;28.22;102230.94;5051333;28;20062;-71
2021/06/14 10:26:41;;;;;;;17.50;7.22;;;;;;;30.17;27.70;102213.16;5050582;28;20071;-70
2021/06/14 10:29:14;;;;;;;13.38;7.00;;;;;;;30.20;27.09;102217.47;5048371;28;20392;-71
2021/06/14 10:31:42;;;;;;;;;;;;;;;30.28;27.22;102225.03;5053257;28;20075;-72
2021/06/14 10:34:12;;;;;;;13.98;6.18;;;;;;;30.28;27.71;102227.78;5049248;28;20472;-72
2021/06/14 10:36:44;;;;;;;14.13;7.15;;;;;;;30.13;27.20;102228.19;5053997;28;20057;-72
2021/06/14 10:39:13;;;;;;;15.65;7.13;;;;;;;29.52;28.08;102228.38;5045848;28;20079;-72
2021/06/14 10:41:43;;;;;;;16.60;7.70;;;;;;;30.17;27.45;102228.78;5055185;28;20057;-70
2021/06/14 10:44:13;;;;;;;16.73;7.63;;;;;;;30.71;27.37;102220.94;5047844;28;20467;-70
2021/06/14 10:46:45;;;;;;;15.02;7.18;;;;;;;29.65;27.74;102228.13;5049126;28;20328;-72
2021/06/14 10:49:14;;;;;;;14.98;7.47;;;;;;;29.70;27.87;102225.81;5046813;28;20052;-70
2021/06/14 10:51:44;;;;;;;16.70;7.55;;;;;;;30.06;27.12;102218.78;5051697;28;20064;-69
2021/06/14 10:54:15;;;;;;;19.45;7.72;;;;;;;30.54;26.84;102217.91;5047704;28;20049;-72
2021/06/14 10:56:44;;;;;;;14.68;6.75;;;;;;;30.02;26.76;102228.34;5055412;28;20061;-71
2021/06/14 10:59:15;;;;;;;17.90;6.80;;;;;;;30.25;27.78;102228.06;5046144;28;20063;-73
2021/06/14 11:01:45;;;;;;;15.45;6.90;;;;;;;30.62;26.42;102227.34;5056375;28;20095;-72
2021/06/14 11:04:24;;;;;;;17.73;6.65;;;;;;;29.28;27.63;102221.34;5049213;28;20680;-72
2021/06/14 11:06:54;;;;;;;16.60;7.32;;;;;;;29.85;26.47;102221.69;5049700;28;20080;-71
2021/06/14 11:09:22;;;;;;;17.50;7.38;;;;;;;29.01;27.74;102217.31;5047363;28;20057;-71
2021/06/14 11:11:54;;;;;;;14.27;6.43;;;;;;;29.16;27.53;102215.06;5054458;28;20056;-72
2021/06/14 11:14:35;;;;;;;13.10;6.25;;;;;;;28.92;28.02;102220.00;5047304;28;20137;-73
2021/06/14 11:17:16;;;;;;;17.23;7.00;;;;;;;29.69;27.40;102219.44;5064540;28;20066;-71
2021/06/14 11:19:45;;;;;;;15.93;6.60;;;;;;;30.26;26.08;102216.91;5051260;28;20061;-72
2021/06/14 11:22:14;;;;;;;13.93;6.30;;;;;;;30.16;25.79;102213.28;5057999;28;20482;-71
2021/06/14 11:24:43;;;;;;;12.43;6.57;;;;;;;29.97;26.50;102214.16;5066272;28;20068;-71
2021/06/14 11:27:12;;;;;;;15.43;6.80;;;;;;;29.65;26.63;102219.88;5060923;28;20140;-71
2021/06/14 11:29:46;;;;;;;12.65;6.60;;;;;;;30.09;26.19;102218.50;5052755;28;20056;-72
2021/06/14 11:32:20;;;;;;;13.50;5.82;;;;;;;31.13;25.73;102222.44;5057384;28;20057;-72